Time;durP1;ratioP1;P1;durP2;ratioP2;P2;SDS_P1;SDS_P2;PMS_P1;PMS_P2;Temp;Humidity;BMP_temperature;BMP_pressure;BME280_temperature;BME280_humidity;BME280_pressure;Samples;Min_cycle;Max_cycle;Signal;HPM_P1;HPM_P2
2022/11/29 00:01:06;;;;;;;13.00;12.20;;;;;;;3.15;95.08;92950.34;5088461;28;20228;-69
2022/11/29 00:03:32;;;;;;;12.37;11.47;;;;;;;3.12;95.11;92948.22;5088889;28;20177;-68
2022/11/29 00:06:05;;;;;;;11.70;11.10;;;;;;;3.12;94.91;92951.59;5088257;28;20237;-68
2022/11/29 00:08:31;;;;;;;12.70;12.00;;;;;;;3.21;93.21;92949.47;5088953;28;20184;-68
2022/11/29 00:11:02;;;;;;;12.90;12.20;;;;;;;3.15;93.69;92951.16;5088702;28;20297;-68
2022/11/29 00:13:27;;;;;;;12.37;11.57;;;;;;;3.23;93.98;92955.97;5088827;28;20248;-68
2022/11/29 00:15:53;;;;;;;12.43;11.63;;;;;;;3.24;93.99;92957.53;5088371;28;20212;-68
2022/11/29 00:18:18;;;;;;;11.37;10.87;;;;;;;3.31;92.05;92952.25;5088916;28;20172;-68
2022/11/29 00:20:43;;;;;;;11.67;11.07;;;;;;;3.27;91.68;92957.09;5088207;28;20281;-68
2022/11/29 00:23:09;;;;;;;10.33;9.77;;;;;;;3.17;92.13;92948.34;5091686;28;20196;-68
2022/11/29 00:25:37;;;;;;;11.20;10.70;;;;;;;3.20;91.33;92950.47;5091960;28;20292;-68
2022/11/29 00:28:02;;;;;;;11.30;10.70;;;;;;;3.18;92.80;92949.91;5091849;28;20173;-66
2022/11/29 00:30:27;;;;;;;12.60;11.70;;;;;;;3.16;92.51;92951.91;5091698;28;20229;-66
2022/11/29 00:32:53;;;;;;;10.97;10.33;;;;;;;3.28;92.46;92952.72;5092101;28;20204;-66
2022/11/29 00:35:18;;;;;;;10.87;10.27;;;;;;;3.36;91.89;92951.59;5089523;28;20232;-65
2022/11/29 00:37:43;;;;;;;11.20;10.70;;;;;;;3.25;92.00;92953.16;5089948;28;20256;-66
2022/11/29 00:40:09;;;;;;;11.83;11.23;;;;;;;3.22;91.13;92945.88;5091538;28;20235;-66
2022/11/29 00:42:35;;;;;;;11.83;11.23;;;;;;;3.41;91.26;92951.69;5079562;28;20180;-66
2022/11/29 00:45:00;;;;;;;11.57;10.97;;;;;;;3.23;91.58;92950.81;5091453;28;20261;-67
2022/11/29 00:47:25;;;;;;;12.13;11.20;;;;;;;3.14;92.85;92961.69;5091430;28;20187;-66
2022/11/29 00:49:51;;;;;;;13.27;12.40;;;;;;;3.12;93.79;92955.97;5091392;28;20288;-66
2022/11/29 00:52:16;;;;;;;11.43;10.70;;;;;;;3.29;93.40;92959.44;5091559;28;20196;-66
2022/11/29 00:54:41;;;;;;;11.30;10.60;;;;;;;3.19;93.81;92954.06;5091602;28;20228;-66
2022/11/29 00:57:07;;;;;;;11.50;10.80;;;;;;;3.24;93.16;92951.59;5091174;28;20196;-66
2022/11/29 00:59:32;;;;;;;12.50;11.80;;;;;;;3.26;92.97;92952.16;5091514;28;20197;-65
2022/11/29 01:01:57;;;;;;;11.70;11.00;;;;;;;3.24;93.20;92956.75;5090648;28;20184;-66
2022/11/29 01:04:23;;;;;;;12.00;11.30;;;;;;;3.19;94.48;92960.00;5091221;28;20200;-66
2022/11/29 01:06:52;;;;;;;12.73;11.87;;;;;;;3.21;93.84;92949.47;5091443;28;20204;-66
2022/11/29 01:09:18;;;;;;;13.30;12.53;;;;;;;3.38;93.04;92952.91;5091205;28;20248;-67
2022/11/29 01:11:43;;;;;;;13.33;12.53;;;;;;;3.33;93.41;92945.09;5091003;28;20181;-66
2022/11/29 01:14:10;;;;;;;12.33;11.57;;;;;;;3.38;92.97;92945.19;5091403;28;20251;-67
2022/11/29 01:16:35;;;;;;;12.63;11.83;;;;;;;3.22;93.17;92958.78;5090412;28;20216;-66
2022/11/29 01:19:01;;;;;;;13.57;12.77;;;;;;;3.21;93.15;92944.28;5090991;28;20208;-66
2022/11/29 01:21:27;;;;;;;11.83;11.13;;;;;;;3.17;93.47;92943.19;5090212;28;20219;-66
2022/11/29 01:23:53;;;;;;;13.27;12.40;;;;;;;3.10;93.64;92935.56;5090931;28;20245;-66
2022/11/29 01:26:22;;;;;;;13.13;12.23;;;;;;;3.13;93.77;92944.63;5089882;28;20228;-67
2022/11/29 01:28:49;;;;;;;12.53;11.83;;;;;;;3.06;94.45;92939.63;5091320;28;20184;-66
2022/11/29 01:31:18;;;;;;;12.90;11.97;;;;;;;3.02;94.96;92938.47;5090646;28;20224;-65
2022/11/29 01:33:44;;;;;;;13.77;12.87;;;;;;;3.06;95.53;92931.09;5089096;28;20188;-66
2022/11/29 01:36:12;;;;;;;14.43;13.23;;;;;;;3.03;95.42;92940.06;5090291;28;20254;-66
2022/11/29 01:38:37;;;;;;;14.03;13.13;;;;;;;2.91;96.52;92925.59;5089975;28;20180;-66
2022/11/29 01:41:11;;;;;;;14.47;13.37;;;;;;;3.07;96.29;92933.44;5084469;28;20280;-67
2022/11/29 01:44:02;;;;;;;14.47;13.37;;;;;;;3.02;96.60;92932.53;5090142;28;20219;-66
2022/11/29 01:46:35;;;;;;;15.63;14.53;;;;;;;2.96;97.31;92923.91;5083284;28;20776;-66
2022/11/29 01:49:07;;;;;;;13.40;12.37;;;;;;;2.85;97.84;92909.22;5090391;28;20240;-66
2022/11/29 01:51:34;;;;;;;14.30;13.20;;;;;;;3.09;97.94;92917.72;5081643;28;20216;-66
2022/11/29 01:54:00;;;;;;;14.23;12.93;;;;;;;3.07;98.15;92919.75;5090453;28;20189;-67
2022/11/29 01:56:28;;;;;;;14.57;13.27;;;;;;;2.98;98.16;92913.38;5086931;28;20220;-66
2022/11/29 01:58:53;;;;;;;13.60;12.80;;;;;;;2.98;98.30;92915.94;5091241;28;20213;-66
2022/11/29 02:01:19;;;;;;;13.90;13.03;;;;;;;2.97;98.88;92911.81;5089131;28;20217;-66
2022/11/29 02:03:44;;;;;;;13.00;11.90;;;;;;;2.96;99.46;92915.38;5090310;28;20199;-65
2022/11/29 02:06:10;;;;;;;13.77;12.87;;;;;;;2.89;99.50;92901.81;5081096;28;20260;-66
2022/11/29 02:08:38;;;;;;;13.83;12.80;;;;;;;2.97;100.00;92906.66;5090355;28;20172;-66
2022/11/29 02:11:21;;;;;;;13.93;12.97;;;;;;;2.96;100.00;92905.84;5089768;28;20223;-66
2022/11/29 02:14:11;;;;;;;12.40;11.50;;;;;;;2.97;100.00;92909.22;5084537;28;20189;-66
2022/11/29 02:17:14;;;;;;;14.33;13.27;;;;;;;2.99;100.00;92907.97;5088268;28;20256;-65
2022/11/29 02:19:45;;;;;;;13.73;12.83;;;;;;;2.92;100.00;92901.38;5080876;28;20287;-66
2022/11/29 02:22:18;;;;;;;15.00;13.87;;;;;;;3.00;100.00;92901.03;5089803;28;20197;-66
2022/11/29 02:24:56;;;;;;;13.93;12.83;;;;;;;2.93;100.00;92903.72;5089388;28;20224;-65
2022/11/29 02:27:25;;;;;;;13.50;12.53;;;;;;;2.90;100.00;92906.75;5080491;28;20728;-65
2022/11/29 02:30:09;;;;;;;13.87;12.77;;;;;;;2.88;100.00;92905.44;5089466;28;20216;-66
2022/11/29 02:32:40;;;;;;;14.43;13.43;;;;;;;2.94;100.00;92907.88;5082800;28;20607;-65
2022/11/29 02:35:24;;;;;;;14.80;13.70;;;;;;;2.90;100.00;92911.91;5088755;28;20237;-65
2022/11/29 02:38:02;;;;;;;13.17;12.27;;;;;;;3.00;100.00;92909.53;5089949;28;20188;-66
2022/11/29 02:40:45;;;;;;;14.03;13.23;;;;;;;3.00;100.00;92913.94;5084545;28;20642;-66
2022/11/29 02:43:29;;;;;;;13.73;12.63;;;;;;;3.04;100.00;92920.19;5089297;28;20234;-66
2022/11/29 02:46:06;;;;;;;13.43;12.50;;;;;;;3.07;99.84;92922.31;5086241;28;20225;-66
2022/11/29 02:48:49;;;;;;;12.60;11.67;;;;;;;3.04;98.93;92915.03;5078641;28;20946;-66
2022/11/29 02:51:38;;;;;;;11.37;10.67;;;;;;;3.00;99.21;92913.94;5089343;28;20227;-64
2022/11/29 02:54:06;;;;;;;13.03;12.13;;;;;;;3.04;98.97;92925.34;5090033;28;20227;-66
2022/11/29 02:56:54;;;;;;;12.87;12.13;;;;;;;2.87;100.00;92925.25;5088863;28;20224;-66
2022/11/29 02:59:29;;;;;;;12.13;11.33;;;;;;;2.95;100.00;92909.47;5089460;28;20240;-66
2022/11/29 03:02:11;;;;;;;12.30;11.43;;;;;;;2.92;100.00;92912.47;5089636;28;20278;-66
2022/11/29 03:04:42;;;;;;;11.20;10.50;;;;;;;3.06;99.15;92918.97;5077657;28;20267;-64
2022/11/29 03:07:45;;;;;;;10.73;10.13;;;;;;;3.09;98.69;92915.16;5089503;28;20207;-66
2022/11/29 03:10:29;;;;;;;11.77;11.07;;;;;;;2.89;99.48;92912.94;5088939;28;21224;-65
2022/11/29 03:12:57;;;;;;;11.50;10.70;;;;;;;2.94;99.29;92915.59;5079939;28;20204;-66
2022/11/29 03:15:43;;;;;;;12.40;11.50;;;;;;;3.03;98.44;92918.63;5088951;28;20299;-66
2022/11/29 03:18:17;;;;;;;12.37;11.67;;;;;;;2.97;98.87;92915.16;5086814;28;20204;-66
2022/11/29 03:21:13;;;;;;;13.17;12.37;;;;;;;3.01;99.39;92915.50;5088840;28;20212;-67
2022/11/29 03:24:00;;;;;;;11.47;10.77;;;;;;;3.03;99.15;92923.78;5084555;28;20192;-67
2022/11/29 03:26:43;;;;;;;12.67;11.90;;;;;;;2.94;100.00;92920.75;5088785;28;20224;-66
2022/11/29 03:29:20;;;;;;;12.53;11.80;;;;;;;2.86;100.00;92925.47;5080129;28;20185;-66
2022/11/29 03:32:09;;;;;;;13.17;12.30;;;;;;;2.92;100.00;92922.00;5088087;28;20227;-66
2022/11/29 03:35:01;;;;;;;13.67;12.77;;;;;;;3.00;100.00;92930.16;5083709;28;20181;-66
2022/11/29 03:37:39;;;;;;;12.07;11.23;;;;;;;3.00;100.00;92924.25;5081422;28;20210;-66
2022/11/29 03:40:18;;;;;;;12.73;11.77;;;;;;;3.06;100.00;92928.50;5086422;28;20248;-66
2022/11/29 03:42:51;;;;;;;14.07;12.83;;;;;;;2.99;100.00;92932.97;5089237;28;20180;-66
2022/11/29 03:45:48;;;;;;;12.67;11.77;;;;;;;3.07;100.00;92924.91;5079128;28;20232;-66
2022/11/29 03:48:23;;;;;;;11.93;11.23;;;;;;;3.02;100.00;92924.78;5083557;28;20201;-66
2022/11/29 03:50:53;;;;;;;12.37;11.47;;;;;;;3.15;100.00;92922.00;5088478;28;20216;-66
2022/11/29 03:53:35;;;;;;;13.47;12.40;;;;;;;3.18;98.81;92926.69;5088898;28;20185;-66
2022/11/29 03:56:40;;;;;;;12.63;11.73;;;;;;;3.07;100.00;92930.84;5090526;28;20288;-66
2022/11/29 03:59:08;;;;;;;12.80;11.80;;;;;;;3.15;98.67;92927.94;5085930;28;20221;-66
2022/11/29 04:02:11;;;;;;;12.87;11.97;;;;;;;3.30;97.72;92923.09;5078555;28;20228;-65
2022/11/29 04:05:07;;;;;;;11.97;11.27;;;;;;;3.23;97.64;92919.06;5079990;28;20310;-66
2022/11/29 04:07:59;;;;;;;10.83;10.23;;;;;;;3.16;97.41;92918.38;5092038;28;20185;-66
2022/11/29 04:10:37;;;;;;;11.67;11.03;;;;;;;3.25;96.92;92917.81;5092076;28;20228;-65
2022/11/29 04:13:08;;;;;;;10.93;10.23;;;;;;;3.19;97.03;92916.16;5092146;28;20212;-67
2022/11/29 04:16:02;;;;;;;11.70;11.10;;;;;;;3.19;95.98;92923.88;5091944;28;20220;-65
2022/11/29 04:19:09;;;;;;;11.10;10.53;;;;;;;3.30;96.13;92927.47;5090782;28;20181;-66
2022/11/29 04:21:43;;;;;;;10.77;10.23;;;;;;;3.25;95.32;92927.38;5052446;28;20228;-66
2022/11/29 04:24:37;;;;;;;11.40;10.80;;;;;;;3.23;95.01;92934.53;5107925;28;20191;-67
2022/11/29 04:27:18;;;;;;;11.50;11.03;;;;;;;3.29;95.00;92936.22;5091959;28;20213;-66
2022/11/29 04:30:11;;;;;;;11.13;10.53;;;;;;;3.25;94.68;92937.69;5092148;28;20251;-67
2022/11/29 04:32:55;;;;;;;10.63;10.17;;;;;;;3.26;95.00;92932.31;5084725;28;20187;-66
2022/11/29 04:35:33;;;;;;;12.33;11.73;;;;;;;3.24;95.57;92931.75;5091779;28;20284;-66
2022/11/29 04:38:17;;;;;;;10.97;10.47;;;;;;;3.31;95.13;92937.56;5092011;28;20188;-66
2022/11/29 04:41:00;;;;;;;11.67;11.07;;;;;;;3.26;95.97;92934.09;5091557;28;20220;-66
2022/11/29 04:43:46;;;;;;;12.07;11.47;;;;;;;3.18;96.29;92937.00;5085314;28;20181;-66
2022/11/29 04:46:35;;;;;;;11.50;10.90;;;;;;;3.33;96.74;92935.53;5087319;28;20262;-66
2022/11/29 04:49:09;;;;;;;12.23;11.43;;;;;;;3.24;97.36;92930.94;5085752;28;20264;-66
2022/11/29 04:52:04;;;;;;;11.83;11.23;;;;;;;3.21;97.27;92936.56;5091205;28;20785;-66
2022/11/29 04:54:48;;;;;;;13.63;12.83;;;;;;;3.23;97.28;92932.75;5091206;28;20223;-66
2022/11/29 04:57:29;;;;;;;12.13;11.33;;;;;;;3.32;96.95;92933.19;5092103;28;20216;-65
2022/11/29 05:00:12;;;;;;;12.70;12.10;;;;;;;3.29;96.39;92928.47;5072337;28;20225;-66
2022/11/29 05:02:47;;;;;;;11.77;10.97;;;;;;;3.29;96.56;92929.28;5091604;28;20645;-66
2022/11/29 05:05:40;;;;;;;10.80;10.30;;;;;;;3.30;95.92;92930.03;5090653;28;20315;-66
2022/11/29 05:08:24;;;;;;;11.43;10.93;;;;;;;3.36;95.68;92929.16;5081294;28;20185;-67
2022/11/29 05:11:09;;;;;;;11.30;10.60;;;;;;;3.37;95.70;92922.97;5090983;28;20228;-65
2022/11/29 05:14:09;;;;;;;12.23;11.53;;;;;;;3.40;95.17;92932.03;5091424;28;20199;-66
2022/11/29 05:16:46;;;;;;;11.90;11.30;;;;;;;3.35;95.58;92926.81;5090970;28;20223;-66
2022/11/29 05:19:30;;;;;;;11.90;11.23;;;;;;;3.24;96.05;92926.56;5091415;28;20208;-66
2022/11/29 05:22:04;;;;;;;11.37;10.80;;;;;;;3.35;96.75;92927.56;5090733;28;20232;-66
2022/11/29 05:24:51;;;;;;;10.97;10.27;;;;;;;3.28;96.45;92921.75;5091007;28;20196;-66
2022/11/29 05:27:46;;;;;;;11.60;11.00;;;;;;;3.34;95.30;92933.75;5080276;28;20208;-66
2022/11/29 05:30:19;;;;;;;12.23;11.53;;;;;;;3.33;95.81;92914.13;5090302;28;20224;-67
2022/11/29 05:33:16;;;;;;;11.27;10.60;;;;;;;3.35;95.79;92925.00;5091347;28;20173;-67
2022/11/29 05:36:07;;;;;;;11.47;10.77;;;;;;;3.40;96.20;92925.09;5065517;28;20236;-68
2022/11/29 05:38:54;;;;;;;12.23;11.53;;;;;;;3.42;95.51;92928.25;5090935;28;20276;-68
2022/11/29 05:41:53;;;;;;;13.13;11.97;;;;;;;3.38;96.28;92929.69;5090637;28;20220;-68
2022/11/29 05:44:26;;;;;;;12.77;11.97;;;;;;;3.48;96.35;92937.66;5085602;28;20254;-67
2022/11/29 05:46:55;;;;;;;13.03;12.30;;;;;;;3.43;95.67;92941.91;5090695;28;20240;-67
2022/11/29 05:49:39;;;;;;;11.33;10.70;;;;;;;3.33;96.92;92945.09;5089110;28;20188;-68
2022/11/29 05:52:23;;;;;;;11.90;11.00;;;;;;;3.48;96.53;92934.28;5089364;28;20193;-67
2022/11/29 05:55:13;;;;;;;12.17;11.50;;;;;;;3.52;95.75;92943.16;5090054;28;20224;-69
2022/11/29 05:57:54;;;;;;;12.63;11.73;;;;;;;3.47;96.79;92943.81;5088726;28;20210;-69
2022/11/29 06:00:21;;;;;;;11.23;10.63;;;;;;;3.59;96.45;92939.44;5089889;28;20223;-70
2022/11/29 06:03:04;;;;;;;11.23;10.63;;;;;;;3.65;95.89;92937.72;5090309;28;20188;-71
2022/11/29 06:05:36;;;;;;;11.67;11.07;;;;;;;3.64;95.07;92924.06;5089249;28;20220;-69
2022/11/29 06:08:01;;;;;;;14.57;13.37;;;;;;;3.73;94.07;92940.75;5083446;28;20215;-70
2022/11/29 06:10:31;;;;;;;13.50;12.50;;;;;;;3.78;94.38;92927.16;5086089;28;20292;-69
2022/11/29 06:13:06;;;;;;;13.80;12.83;;;;;;;3.60;94.63;92935.81;5089267;28;20192;-71
2022/11/29 06:16:02;;;;;;;12.27;11.43;;;;;;;3.72;94.87;92940.97;5088861;28;20265;-71
2022/11/29 06:18:42;;;;;;;12.93;12.23;;;;;;;3.84;94.46;92936.56;5087750;28;20220;-69
2022/11/29 06:21:12;;;;;;;16.17;15.37;;;;;;;3.84;93.73;92933.97;5087936;28;20224;-71
2022/11/29 06:23:41;;;;;;;11.43;10.73;;;;;;;3.79;93.86;92934.66;5086453;28;20177;-72
2022/11/29 06:26:17;;;;;;;12.10;11.40;;;;;;;3.99;92.93;92940.22;5088095;28;20240;-71
2022/11/29 06:28:42;;;;;;;12.50;11.40;;;;;;;3.91;93.89;92940.56;5089265;28;20196;-72
2022/11/29 06:31:26;;;;;;;11.80;11.10;;;;;;;3.87;93.89;92938.69;5086271;28;20258;-73
2022/11/29 06:34:06;;;;;;;15.40;14.10;;;;;;;3.96;94.16;92940.66;5084844;28;20182;-70
2022/11/29 06:36:37;;;;;;;14.27;13.17;;;;;;;3.97;94.10;92946.63;5085710;28;20212;-71
2022/11/29 06:39:03;;;;;;;12.70;11.97;;;;;;;4.00;94.31;92941.75;5089411;28;20181;-71
2022/11/29 06:41:29;;;;;;;12.80;11.90;;;;;;;4.09;93.00;92932.66;5089085;28;20318;-71
2022/11/29 06:43:54;;;;;;;13.03;12.13;;;;;;;4.06;93.10;92934.91;5086810;28;20235;-71
2022/11/29 06:46:43;;;;;;;13.10;12.30;;;;;;;4.04;92.64;92942.88;5089232;28;20225;-70
2022/11/29 06:49:16;;;;;;;13.23;12.33;;;;;;;3.90;93.96;92941.59;5083014;28;20223;-68
2022/11/29 06:52:03;;;;;;;12.20;11.53;;;;;;;4.03;93.14;92943.88;5088426;28;20224;-70
2022/11/29 06:54:54;;;;;;;12.33;11.53;;;;;;;3.97;93.99;92944.81;5087665;28;20227;-65
2022/11/29 06:57:44;;;;;;;13.07;12.13;;;;;;;4.09;93.02;92945.56;5084196;28;20230;-66
2022/11/29 07:00:10;;;;;;;12.67;11.87;;;;;;;4.17;93.18;92952.94;5087624;28;20259;-66
2022/11/29 07:03:05;;;;;;;12.43;11.63;;;;;;;4.21;93.21;92956.63;5088946;28;20181;-68
2022/11/29 07:05:33;;;;;;;12.77;11.93;;;;;;;4.25;92.46;92960.31;5084986;28;20243;-70
2022/11/29 07:08:21;;;;;;;11.83;11.07;;;;;;;4.47;90.97;92960.44;5084113;28;20223;-68
2022/11/29 07:10:49;;;;;;;11.93;11.23;;;;;;;4.46;88.75;92959.66;5084373;28;20217;-68
2022/11/29 07:13:16;;;;;;;12.23;11.43;;;;;;;4.54;88.82;92963.66;5088904;28;20190;-70
2022/11/29 07:15:55;;;;;;;12.13;11.53;;;;;;;4.41;89.68;92958.78;5087019;28;20224;-69
2022/11/29 07:18:46;;;;;;;12.40;11.60;;;;;;;4.58;88.90;92964.75;5087629;28;20199;-71
2022/11/29 07:21:23;;;;;;;11.17;10.57;;;;;;;4.54;88.81;92969.63;5086530;28;20224;-70
2022/11/29 07:24:07;;;;;;;11.63;11.03;;;;;;;4.25;88.63;92913.81;5085448;28;20821;-67
2022/11/29 07:26:45;;;;;;;11.90;11.20;;;;;;;4.67;88.24;92965.94;5088307;28;20220;-69
2022/11/29 07:29:53;;;;;;;9.83;9.33;;;;;;;4.73;87.35;92976.13;5080207;28;20203;-69
2022/11/29 07:32:36;;;;;;;11.10;10.60;;;;;;;4.82;85.97;92964.38;5064365;28;20212;-69
2022/11/29 07:35:40;;;;;;;11.07;10.50;;;;;;;4.76;86.48;92974.91;5090013;28;20220;-69
2022/11/29 07:38:15;;;;;;;10.37;9.87;;;;;;;4.76;85.91;92967.16;5058073;28;20196;-69
2022/11/29 07:40:40;;;;;;;10.87;10.27;;;;;;;4.73;86.53;92962.44;5090679;28;20212;-70
2022/11/29 07:43:24;;;;;;;10.90;10.30;;;;;;;4.87;86.41;92969.63;5092337;28;20195;-70
2022/11/29 07:45:50;;;;;;;11.00;10.50;;;;;;;4.88;85.72;92947.94;5089793;28;20224;-69
2022/11/29 07:48:16;;;;;;;12.13;11.43;;;;;;;4.90;85.75;92971.75;5092094;28;20223;-69
2022/11/29 07:50:42;;;;;;;12.40;11.70;;;;;;;4.80;87.14;92966.44;5088060;28;20288;-70
2022/11/29 07:53:15;;;;;;;12.20;11.60;;;;;;;4.69;88.05;92972.47;5091440;28;20183;-69
2022/11/29 07:55:41;;;;;;;12.83;12.13;;;;;;;4.74;89.11;92969.97;5091853;28;20305;-69
2022/11/29 07:58:10;;;;;;;12.17;11.43;;;;;;;4.76;89.05;92962.72;5092382;28;20192;-68
2022/11/29 08:00:35;;;;;;;11.60;10.77;;;;;;;4.89;87.74;92970.19;5083785;28;20243;-68
2022/11/29 08:03:01;;;;;;;13.07;12.27;;;;;;;4.81;88.25;92969.78;5092017;28;20895;-69
2022/11/29 08:05:26;;;;;;;12.93;12.03;;;;;;;4.73;87.28;92967.63;5090932;28;20228;-69
2022/11/29 08:07:53;;;;;;;13.30;12.43;;;;;;;4.73;87.24;92976.13;5091544;28;20215;-69
2022/11/29 08:10:18;;;;;;;14.37;13.03;;;;;;;4.69;87.89;92976.84;5090677;28;20219;-69
2022/11/29 08:12:46;;;;;;;12.60;11.93;;;;;;;4.78;87.49;92978.81;5091841;28;20200;-69
2022/11/29 08:15:12;;;;;;;12.87;11.87;;;;;;;4.82;87.41;92976.53;5088615;28;20223;-69
2022/11/29 08:17:38;;;;;;;12.43;11.70;;;;;;;4.76;86.13;92962.72;5091424;28;20189;-70
2022/11/29 08:20:05;;;;;;;12.70;11.90;;;;;;;4.74;86.94;92976.94;5084427;28;20290;-69
2022/11/29 08:22:30;;;;;;;10.77;10.27;;;;;;;4.69;86.41;92977.63;5080978;28;20841;-70
2022/11/29 08:24:56;;;;;;;11.63;11.03;;;;;;;4.62;86.46;92971.81;5091568;28;20281;-71
2022/11/29 08:27:22;;;;;;;12.47;11.87;;;;;;;4.62;86.45;92978.81;5088640;28;20208;-69
2022/11/29 08:29:47;;;;;;;10.67;10.27;;;;;;;4.67;86.77;92974.50;5090064;28;20224;-68
2022/11/29 08:32:13;;;;;;;10.43;9.83;;;;;;;4.78;86.39;92967.69;5090462;28;20189;-69
2022/11/29 08:34:38;;;;;;;11.70;11.20;;;;;;;4.77;86.62;92977.25;5090477;28;20247;-68
2022/11/29 08:37:03;;;;;;;11.93;11.33;;;;;;;4.71;86.93;92974.81;5091331;28;20200;-68
2022/11/29 08:39:29;;;;;;;11.73;11.07;;;;;;;4.71;87.63;92974.81;5090380;28;20208;-68
2022/11/29 08:41:54;;;;;;;11.63;11.03;;;;;;;4.70;87.28;92957.75;5089658;28;20222;-69
2022/11/29 08:44:19;;;;;;;10.87;10.37;;;;;;;4.78;87.46;92972.84;5090274;28;20216;-69
2022/11/29 08:49:29;;;;;;;11.77;11.07;;;;;;;4.57;87.36;92963.19;5084668;28;20379;-69
2022/11/29 08:53:40;;;;;;;12.50;11.80;;;;;;;4.68;87.67;92975.28;5088789;28;20177;-67
2022/11/29 08:54:40;;;;;;;11.10;10.50;;;;;;;4.62;88.44;92971.06;5090392;28;20304;-67
2022/11/29 08:57:05;;;;;;;12.40;11.73;;;;;;;4.62;88.93;92971.81;5089782;28;20173;-67
2022/11/29 08:59:30;;;;;;;12.03;11.13;;;;;;;4.83;88.63;92965.97;5090150;28;20189;-68
2022/11/29 09:01:56;;;;;;;11.93;11.23;;;;;;;4.78;88.05;92976.22;5090186;28;20234;-68
2022/11/29 09:04:21;;;;;;;11.50;10.73;;;;;;;4.73;87.89;92962.44;5089784;28;20181;-69
2022/11/29 09:06:48;;;;;;;11.70;11.10;;;;;;;4.79;88.09;92971.84;5090906;28;20897;-68
2022/11/29 09:09:14;;;;;;;12.63;11.73;;;;;;;4.88;87.89;92966.06;5090330;28;20186;-69
2022/11/29 09:11:40;;;;;;;10.40;9.97;;;;;;;5.02;87.34;92950.19;5088789;28;20221;-70
2022/11/29 09:14:07;;;;;;;10.93;10.33;;;;;;;5.07;86.48;92966.59;5090271;28;20189;-68
2022/11/29 09:16:37;;;;;;;11.73;11.13;;;;;;;5.08;86.25;92964.78;5090088;28;20216;-68
2022/11/29 09:19:06;;;;;;;12.00;11.33;;;;;;;4.90;86.73;92955.47;5088910;28;20238;-68
2022/11/29 09:21:35;;;;;;;12.00;11.20;;;;;;;4.98;87.30;92955.84;5088997;28;20221;-67
2022/11/29 09:24:05;;;;;;;12.97;11.90;;;;;;;5.03;87.48;92968.06;5089546;28;20201;-68
2022/11/29 09:26:33;;;;;;;11.47;10.83;;;;;;;5.08;86.88;92969.94;5091255;28;20558;-68
2022/11/29 09:29:00;;;;;;;11.60;11.10;;;;;;;5.08;86.76;92970.75;5090592;28;20263;-68
2022/11/29 09:31:27;;;;;;;11.93;11.13;;;;;;;4.85;87.31;92956.19;5089636;28;20220;-70
2022/11/29 09:33:53;;;;;;;12.43;11.63;;;;;;;4.87;88.15;92958.53;5089947;28;20192;-68
2022/11/29 09:36:20;;;;;;;12.00;11.40;;;;;;;5.05;87.26;92954.91;5088450;28;20212;-67
2022/11/29 09:38:45;;;;;;;13.43;12.30;;;;;;;5.00;87.59;92941.91;5090101;28;20275;-68
2022/11/29 09:41:19;;;;;;;10.80;10.20;;;;;;;5.14;87.08;92943.16;5087856;28;20224;-70
2022/11/29 09:43:59;;;;;;;10.90;10.20;;;;;;;5.11;86.98;92944.41;5090912;28;20248;-68
2022/11/29 09:46:43;;;;;;;11.20;10.57;;;;;;;5.24;86.03;92938.91;5088110;28;20225;-67
2022/11/29 09:49:42;;;;;;;11.10;10.50;;;;;;;5.10;86.62;92939.47;5089173;28;20193;-68
2022/11/29 09:52:25;;;;;;;11.63;10.93;;;;;;;4.87;87.71;92936.03;5089537;28;20204;-67
2022/11/29 09:54:54;;;;;;;12.73;11.93;;;;;;;4.99;87.19;92935.94;5077510;28;20255;-70
2022/11/29 09:57:22;;;;;;;11.30;10.70;;;;;;;5.13;87.18;92931.22;5105556;28;20196;-68
2022/11/29 09:59:52;;;;;;;12.10;11.50;;;;;;;5.08;87.32;92925.97;5089306;28;20236;-69
2022/11/29 10:02:29;;;;;;;11.60;10.97;;;;;;;5.08;87.79;92923.38;5089454;28;20210;-68
2022/11/29 10:05:03;;;;;;;12.23;11.53;;;;;;;5.06;87.08;92915.09;5089343;28;20220;-68
2022/11/29 10:07:41;;;;;;;11.97;11.07;;;;;;;5.15;87.46;92913.66;5089261;28;20192;-70
2022/11/29 10:10:12;;;;;;;12.60;11.90;;;;;;;5.23;87.41;92916.59;5082263;28;20250;-68
2022/11/29 10:12:54;;;;;;;12.33;11.63;;;;;;;5.33;87.75;92921.16;5077564;28;20184;-70
2022/11/29 10:15:26;;;;;;;11.50;10.80;;;;;;;5.19;87.36;92910.34;5088411;28;20229;-70
2022/11/29 10:18:18;;;;;;;12.67;11.73;;;;;;;5.34;86.45;92904.59;5089159;28;20254;-69
2022/11/29 10:20:44;;;;;;;11.73;11.13;;;;;;;5.28;86.43;92902.94;5084221;28;20216;-69
2022/11/29 10:23:19;;;;;;;11.90;11.40;;;;;;;5.45;86.78;92908.91;5088965;28;20184;-69
2022/11/29 10:25:47;;;;;;;12.10;11.33;;;;;;;5.44;86.83;92902.94;5088623;28;20226;-72
2022/11/29 10:28:19;;;;;;;13.43;12.77;;;;;;;5.70;85.54;92909.97;5086645;28;20181;-67
2022/11/29 10:30:45;;;;;;;12.27;11.37;;;;;;;5.70;85.38;92911.78;5087934;28;20259;-68
2022/11/29 10:33:27;;;;;;;12.40;11.50;;;;;;;5.72;85.74;92894.19;5088716;28;20211;-68
2022/11/29 10:36:03;;;;;;;12.40;11.70;;;;;;;5.90;84.96;92906.88;5087837;28;20225;-66
2022/11/29 10:38:28;;;;;;;11.73;10.97;;;;;;;5.88;84.52;92906.34;5089081;28;20184;-67
2022/11/29 10:41:01;;;;;;;11.33;10.63;;;;;;;5.94;84.70;92898.38;5088073;28;20284;-65
2022/11/29 10:43:27;;;;;;;11.63;10.93;;;;;;;5.85;84.69;92905.00;5092959;28;20178;-65
2022/11/29 10:45:54;;;;;;;12.40;11.63;;;;;;;5.90;84.12;92905.06;5089436;28;20232;-66
2022/11/29 10:48:24;;;;;;;11.57;10.97;;;;;;;5.61;84.94;92905.44;5088066;28;20195;-66
2022/11/29 10:50:51;;;;;;;12.07;11.43;;;;;;;5.84;85.09;92907.81;5086678;28;20209;-69
2022/11/29 10:53:21;;;;;;;11.73;10.93;;;;;;;5.98;84.63;92894.25;5082394;28;20200;-66
2022/11/29 10:56:11;;;;;;;11.70;11.10;;;;;;;5.99;84.03;92901.00;5081566;28;20229;-66
2022/11/29 10:58:53;;;;;;;12.10;11.17;;;;;;;5.93;84.72;92901.22;5085759;28;20237;-65
2022/11/29 11:01:19;;;;;;;12.50;11.80;;;;;;;5.82;84.65;92889.16;5088082;28;20200;-66
2022/11/29 11:03:55;;;;;;;12.30;11.60;;;;;;;5.88;85.63;92883.00;5082798;28;20234;-66
2022/11/29 11:06:25;;;;;;;12.70;11.90;;;;;;;5.98;84.88;92889.09;5078097;28;20223;-66
2022/11/29 11:08:52;;;;;;;12.80;11.90;;;;;;;5.85;85.47;92893.88;5081966;28;20259;-68
2022/11/29 11:11:28;;;;;;;12.10;11.50;;;;;;;5.88;85.51;92890.78;5081426;28;20198;-65
2022/11/29 11:13:57;;;;;;;13.30;12.27;;;;;;;5.88;84.93;92886.38;5083752;28;20725;-66
2022/11/29 11:16:25;;;;;;;12.73;11.93;;;;;;;5.66;85.49;92882.22;5087679;28;20181;-66
2022/11/29 11:18:51;;;;;;;14.53;12.40;;;;;;;5.67;86.62;92886.34;5087222;28;20288;-66
2022/11/29 11:21:19;;;;;;;12.50;11.73;;;;;;;5.57;86.51;92902.56;5093995;28;20188;-66
2022/11/29 11:23:52;;;;;;;13.30;12.40;;;;;;;5.39;87.49;92896.88;5091027;28;20242;-69
2022/11/29 11:26:18;;;;;;;13.90;12.77;;;;;;;5.41;87.76;92897.44;5087247;28;20216;-68
2022/11/29 11:28:59;;;;;;;13.90;12.70;;;;;;;5.34;88.44;92907.19;5084581;28;20246;-67
2022/11/29 11:31:34;;;;;;;16.33;14.63;;;;;;;5.43;88.73;92910.94;5086028;28;20192;-66
2022/11/29 11:34:34;;;;;;;14.50;13.33;;;;;;;5.44;88.28;92908.09;5087084;28;20243;-67
2022/11/29 11:37:22;;;;;;;13.57;12.47;;;;;;;5.08;90.91;92915.63;5081094;28;20250;-69
2022/11/29 11:39:50;;;;;;;15.53;14.23;;;;;;;5.43;89.90;92910.94;5087133;28;20208;-68
2022/11/29 11:42:36;;;;;;;13.57;12.47;;;;;;;5.32;89.91;92910.03;5087896;28;20189;-67
2022/11/29 11:45:10;;;;;;;13.30;12.30;;;;;;;5.37;89.95;92919.66;5086526;28;20288;-68
2022/11/29 11:47:41;;;;;;;13.77;12.77;;;;;;;5.36;90.71;92912.91;5088273;28;20232;-66
2022/11/29 11:50:12;;;;;;;14.47;13.33;;;;;;;5.54;89.25;92920.41;5088755;28;20188;-67
2022/11/29 11:52:43;;;;;;;15.03;13.73;;;;;;;5.38;89.66;92923.81;5086651;28;20244;-66
2022/11/29 11:55:21;;;;;;;17.40;15.93;;;;;;;5.30;89.82;92921.63;5078611;28;20189;-66
2022/11/29 11:58:13;;;;;;;16.93;15.70;;;;;;;5.24;90.39;92918.19;5071001;28;20261;-67
2022/11/29 12:00:54;;;;;;;15.13;13.60;;;;;;;5.05;91.98;92914.31;5084351;28;20269;-66
2022/11/29 12:03:22;;;;;;;16.93;15.00;;;;;;;4.94;94.59;92922.94;5087483;28;20220;-65